Time;durP1;ratioP1;P1;durP2;ratioP2;P2;SDS_P1;SDS_P2;PMS_P1;PMS_P2;Temp;Humidity;BMP_temperature;BMP_pressure;BME280_temperature;BME280_humidity;BME280_pressure;Samples;Min_cycle;Max_cycle;Signal;HPM_P1;HPM_P2
2021/08/31 00:00:21;;;;;;;9.55;5.72;;;17.20;99.90;;;;;;5047858;28;20029;-71
2021/08/31 00:02:47;;;;;;;12.05;6.63;;;17.20;99.90;;;;;;5032730;28;20026;-70
2021/08/31 00:05:14;;;;;;;10.93;6.32;;;17.20;99.90;;;;;;5033419;28;20026;-71
2021/08/31 00:07:39;;;;;;;9.40;6.07;;;17.20;99.90;;;;;;5034732;28;20117;-70
2021/08/31 00:10:06;;;;;;;13.18;6.05;;;17.20;99.90;;;;;;5053159;28;20573;-70
2021/08/31 00:12:32;;;;;;;10.40;6.15;;;17.20;99.90;;;;;;5032815;28;20028;-71
2021/08/31 00:14:57;;;;;;;12.82;6.22;;;17.20;99.90;;;;;;5033584;28;20124;-71
2021/08/31 00:17:23;;;;;;;10.15;6.07;;;17.20;99.90;;;;;;5033607;28;20480;-71
2021/08/31 00:19:49;;;;;;;9.10;5.60;;;17.20;99.90;;;;;;5033927;28;20574;-71
2021/08/31 00:22:14;;;;;;;10.98;5.63;;;17.10;99.90;;;;;;5031327;28;20028;-71
2021/08/31 00:24:41;;;;;;;11.18;6.50;;;17.10;99.90;;;;;;5034178;28;20347;-71
2021/08/31 00:27:07;;;;;;;11.05;5.72;;;17.10;99.90;;;;;;5045938;28;20053;-72
2021/08/31 00:29:32;;;;;;;8.73;6.15;;;17.00;99.90;;;;;;5032778;28;20057;-71
2021/08/31 00:31:58;;;;;;;10.60;6.43;;;17.00;99.90;;;;;;5033780;28;20029;-71
2021/08/31 00:34:23;;;;;;;11.32;6.32;;;17.00;99.90;;;;;;5050492;28;20120;-70
2021/08/31 00:36:49;;;;;;;7.78;5.45;;;17.10;99.90;;;;;;5033171;28;20448;-71
2021/08/31 00:39:14;;;;;;;10.52;6.03;;;17.00;99.90;;;;;;5049607;28;20080;-71
2021/08/31 00:41:40;;;;;;;11.45;5.88;;;17.10;99.90;;;;;;5035863;28;20034;-69
2021/08/31 00:44:17;;;;;;;10.65;6.32;;;17.10;99.90;;;;;;5048360;28;20029;-69
2021/08/31 00:46:42;;;;;;;9.82;5.75;;;17.10;99.90;;;;;;5035644;28;20488;-69
2021/08/31 00:49:08;;;;;;;7.78;6.13;;;17.00;99.90;;;;;;5030725;28;20037;-69
2021/08/31 00:51:33;;;;;;;8.98;5.47;;;17.00;99.90;;;;;;5032937;28;20418;-69
2021/08/31 00:54:00;;;;;;;13.02;5.88;;;17.00;99.90;;;;;;5030506;28;20513;-69
2021/08/31 00:56:25;;;;;;;12.00;5.50;;;17.10;99.90;;;;;;5050749;28;20029;-69
2021/08/31 00:58:51;;;;;;;10.95;5.93;;;17.00;99.90;;;;;;5031536;28;20535;-69
2021/08/31 01:01:17;;;;;;;9.77;6.10;;;17.10;99.90;;;;;;5048617;28;20033;-69
2021/08/31 01:03:43;;;;;;;10.13;6.10;;;17.00;99.90;;;;;;5031058;28;20030;-69
2021/08/31 01:06:08;;;;;;;7.63;5.72;;;17.10;99.90;;;;;;5032485;28;20600;-69
2021/08/31 01:08:34;;;;;;;10.82;5.68;;;17.10;99.90;;;;;;5030747;28;20033;-69
2021/08/31 01:11:01;;;;;;;6.75;4.93;;;17.10;99.90;;;;;;5032858;28;20034;-69
2021/08/31 01:13:39;;;;;;;10.60;7.28;;;17.10;99.90;;;;;;5040668;28;20024;-69
2021/08/31 01:16:05;;;;;;;8.82;5.90;;;17.10;99.90;;;;;;5052683;28;20124;-70
2021/08/31 01:18:31;;;;;;;12.25;6.97;;;17.10;99.90;;;;;;5037379;28;20040;-69
2021/08/31 01:20:59;;;;;;;10.35;5.80;;;17.10;99.90;;;;;;5029908;28;20490;-70
2021/08/31 01:23:26;;;;;;;8.68;5.82;;;17.10;99.90;;;;;;5031018;28;20030;-70
2021/08/31 01:25:53;;;;;;;11.20;6.28;;;17.10;99.90;;;;;;5035641;28;20048;-69
2021/08/31 01:28:21;;;;;;;9.57;6.07;;;17.10;99.90;;;;;;5041125;28;20025;-70
2021/08/31 01:30:49;;;;;;;8.70;5.63;;;17.10;99.90;;;;;;5042698;28;20324;-70
2021/08/31 01:33:14;;;;;;;9.98;6.35;;;17.00;99.90;;;;;;5028469;28;20049;-69
2021/08/31 01:35:40;;;;;;;9.90;6.03;;;17.00;99.90;;;;;;5031911;28;20029;-69
2021/08/31 01:38:05;;;;;;;9.40;5.72;;;17.10;99.90;;;;;;5031430;28;20044;-69
2021/08/31 01:40:31;;;;;;;9.50;6.68;;;17.00;99.90;;;;;;5030452;28;20029;-69
2021/08/31 01:42:57;;;;;;;9.77;5.85;;;17.00;99.90;;;;;;5046792;28;20017;-68
2021/08/31 01:45:22;;;;;;;11.68;7.28;;;17.00;99.90;;;;;;5030673;28;20041;-69
2021/08/31 01:47:48;;;;;;;10.15;6.28;;;17.00;99.90;;;;;;5031047;28;20026;-68
2021/08/31 01:50:13;;;;;;;9.30;5.80;;;16.90;99.90;;;;;;5032303;28;20402;-69
2021/08/31 01:52:40;;;;;;;9.77;5.65;;;16.90;99.90;;;;;;5028378;28;20601;-68
2021/08/31 01:55:06;;;;;;;10.20;5.95;;;16.90;99.90;;;;;;5031712;28;20514;-68
2021/08/31 01:57:33;;;;;;;10.05;5.45;;;16.90;99.90;;;;;;5030630;28;20069;-69
2021/08/31 01:59:58;;;;;;;10.02;6.45;;;16.90;99.90;;;;;;5051772;28;20512;-69
2021/08/31 02:02:25;;;;;;;9.63;6.00;;;16.90;99.90;;;;;;5033049;28;20034;-69
2021/08/31 02:04:50;;;;;;;10.65;5.72;;;16.90;99.90;;;;;;5031732;28;20037;-68
2021/08/31 02:07:16;;;;;;;11.38;6.78;;;16.90;99.90;;;;;;5030606;28;20030;-69
2021/08/31 02:09:41;;;;;;;13.13;6.85;;;16.90;99.90;;;;;;5030839;28;20087;-69
2021/08/31 02:12:07;;;;;;;9.35;5.93;;;16.90;99.90;;;;;;5043012;28;20027;-68
2021/08/31 02:14:33;;;;;;;10.55;5.97;;;16.90;99.90;;;;;;5033280;28;20384;-70
2021/08/31 02:16:58;;;;;;;9.20;6.80;;;16.90;99.90;;;;;;5043360;28;20039;-69
2021/08/31 02:19:24;;;;;;;10.43;6.40;;;16.80;99.90;;;;;;5035431;28;20072;-70
2021/08/31 02:21:49;;;;;;;10.32;5.78;;;16.80;99.90;;;;;;5037175;28;20108;-69
2021/08/31 02:24:15;;;;;;;11.85;6.43;;;16.80;99.90;;;;;;5031692;28;20059;-69
2021/08/31 02:26:40;;;;;;;8.27;6.07;;;16.80;99.90;;;;;;5032778;28;20044;-69
2021/08/31 02:29:06;;;;;;;10.38;7.03;;;16.80;99.90;;;;;;5030286;28;20381;-69
2021/08/31 02:31:31;;;;;;;12.55;7.63;;;16.80;99.90;;;;;;5030320;28;20083;-69
2021/08/31 02:33:57;;;;;;;12.63;6.68;;;16.70;99.90;;;;;;5030829;28;20021;-69
2021/08/31 02:36:22;;;;;;;11.85;7.25;;;16.80;99.90;;;;;;5036835;28;20061;-69
2021/08/31 02:38:48;;;;;;;11.23;6.90;;;16.80;99.90;;;;;;5037637;28;20125;-70
2021/08/31 02:41:13;;;;;;;10.35;6.75;;;16.80;99.90;;;;;;5030922;28;20010;-69
2021/08/31 02:43:39;;;;;;;11.07;7.63;;;16.70;99.90;;;;;;5029808;28;20028;-69
2021/08/31 02:46:04;;;;;;;12.38;7.05;;;16.70;99.90;;;;;;5035237;28;20029;-69
2021/08/31 02:48:30;;;;;;;13.20;6.55;;;16.70;99.90;;;;;;5037176;28;20033;-70
2021/08/31 02:50:56;;;;;;;9.95;6.60;;;16.70;99.90;;;;;;5029055;28;20064;-71
2021/08/31 02:53:21;;;;;;;11.45;7.10;;;16.70;99.90;;;;;;5028306;28;20132;-70
2021/08/31 02:55:49;;;;;;;12.27;6.85;;;16.70;99.90;;;;;;5029362;28;20494;-70
2021/08/31 02:58:14;;;;;;;12.00;6.53;;;16.60;99.90;;;;;;5030656;28;20033;-70
2021/08/31 03:00:42;;;;;;;11.27;6.63;;;16.60;99.90;;;;;;5029536;28;20052;-70
2021/08/31 03:03:09;;;;;;;10.77;6.95;;;16.60;99.90;;;;;;5030722;28;20497;-70
2021/08/31 03:05:35;;;;;;;9.57;6.43;;;16.60;99.90;;;;;;5031958;28;20083;-70
2021/08/31 03:08:01;;;;;;;9.30;6.57;;;16.60;99.90;;;;;;5054089;28;20036;-70
2021/08/31 03:10:26;;;;;;;9.95;6.75;;;16.60;99.90;;;;;;5021380;28;20030;-70
2021/08/31 03:12:52;;;;;;;8.18;5.88;;;16.70;99.90;;;;;;5030790;28;20029;-70
2021/08/31 03:15:17;;;;;;;9.93;6.68;;;16.70;99.90;;;;;;5045395;28;20026;-70
2021/08/31 03:17:43;;;;;;;10.43;6.43;;;16.70;99.90;;;;;;5043114;28;20505;-71
2021/08/31 03:20:09;;;;;;;11.77;6.82;;;16.70;99.90;;;;;;5030042;28;20022;-69
2021/08/31 03:22:35;;;;;;;11.90;7.03;;;16.70;99.90;;;;;;5029005;28;20041;-69
2021/08/31 03:25:00;;;;;;;9.27;6.97;;;16.70;99.90;;;;;;5040771;28;20052;-69
2021/08/31 03:27:26;;;;;;;14.82;6.97;;;16.70;99.90;;;;;;5043469;28;20342;-70
2021/08/31 03:29:51;;;;;;;12.55;6.38;;;16.70;99.90;;;;;;5030627;28;20398;-70
2021/08/31 03:32:17;;;;;;;10.00;6.82;;;16.70;99.90;;;;;;5028871;28;20488;-70
2021/08/31 03:34:42;;;;;;;11.75;6.80;;;16.70;99.90;;;;;;5030575;28;20036;-70
2021/08/31 03:37:07;;;;;;;8.40;6.32;;;16.70;99.90;;;;;;5030986;28;20617;-70
2021/08/31 03:39:36;;;;;;;9.57;6.55;;;16.70;99.90;;;;;;5030919;28;20051;-70
2021/08/31 03:42:03;;;;;;;10.90;6.55;;;16.70;99.90;;;;;;5028985;28;20091;-70
2021/08/31 03:44:28;;;;;;;12.00;7.32;;;16.70;99.90;;;;;;5030396;28;20029;-70
2021/08/31 03:46:54;;;;;;;10.57;6.80;;;16.70;99.90;;;;;;5031567;28;20029;-70
2021/08/31 03:49:19;;;;;;;15.63;8.65;;;16.70;99.90;;;;;;5030877;28;20049;-70
2021/08/31 03:51:45;;;;;;;13.13;7.50;;;16.70;99.90;;;;;;5027810;28;20393;-69
2021/08/31 03:54:10;;;;;;;9.50;6.18;;;16.70;99.90;;;;;;5030286;28;20049;-70
2021/08/31 03:56:36;;;;;;;11.88;7.25;;;16.70;99.90;;;;;;5029170;28;20428;-70
2021/08/31 03:59:02;;;;;;;9.70;6.25;;;16.70;99.90;;;;;;5034264;28;20124;-69
2021/08/31 04:01:27;;;;;;;11.35;7.15;;;16.70;99.90;;;;;;5040676;28;20025;-71
2021/08/31 04:03:53;;;;;;;10.73;7.03;;;16.70;99.90;;;;;;5053166;28;20036;-70
2021/08/31 04:06:18;;;;;;;8.73;6.60;;;16.70;99.90;;;;;;5038727;28;20022;-70
2021/08/31 04:08:44;;;;;;;10.75;6.70;;;16.70;99.90;;;;;;5033720;28;20033;-71
2021/08/31 04:11:09;;;;;;;10.75;6.45;;;16.70;99.90;;;;;;5038234;28;20021;-71
2021/08/31 04:13:34;;;;;;;9.50;6.50;;;16.70;99.90;;;;;;5054076;28;20461;-70
2021/08/31 04:16:00;;;;;;;9.63;6.30;;;16.70;99.90;;;;;;5042699;28;20109;-70
2021/08/31 04:18:25;;;;;;;9.63;6.25;;;16.70;99.90;;;;;;5034011;28;20092;-71
2021/08/31 04:20:51;;;;;;;10.35;7.53;;;16.80;99.90;;;;;;5043966;28;20020;-70
2021/08/31 04:23:16;;;;;;;9.15;6.30;;;16.80;99.90;;;;;;5042189;28;20484;-71
2021/08/31 04:25:42;;;;;;;10.38;7.15;;;16.70;99.90;;;;;;5030145;28;20504;-70
2021/08/31 04:28:07;;;;;;;8.98;6.28;;;16.70;99.90;;;;;;5028192;28;20034;-70
2021/08/31 04:30:33;;;;;;;10.57;6.82;;;16.70;99.90;;;;;;5016513;28;20029;-70
2021/08/31 04:32:58;;;;;;;9.85;6.40;;;16.70;99.90;;;;;;5045802;28;20105;-70
2021/08/31 04:35:24;;;;;;;12.02;7.68;;;16.80;99.90;;;;;;5032021;28;20028;-71
2021/08/31 04:37:49;;;;;;;11.32;6.38;;;16.70;99.90;;;;;;5053293;28;20029;-71
2021/08/31 04:40:15;;;;;;;11.65;7.32;;;16.70;99.90;;;;;;5053092;28;20032;-71
2021/08/31 04:42:40;;;;;;;11.77;7.25;;;16.70;99.90;;;;;;5029623;28;20031;-71
2021/08/31 04:45:07;;;;;;;10.15;6.82;;;16.70;99.90;;;;;;5033645;28;20100;-70
2021/08/31 04:47:32;;;;;;;10.93;6.70;;;16.70;99.90;;;;;;5029880;28;20026;-70
2021/08/31 04:49:58;;;;;;;10.00;6.65;;;16.70;99.90;;;;;;5033510;28;20036;-70
2021/08/31 04:52:23;;;;;;;9.70;6.60;;;16.70;99.90;;;;;;5030293;28;20487;-71
2021/08/31 04:54:49;;;;;;;10.65;6.68;;;16.70;99.90;;;;;;5032866;28;20172;-71
2021/08/31 04:57:14;;;;;;;11.77;7.22;;;16.80;99.90;;;;;;5032151;28;20030;-70
2021/08/31 04:59:40;;;;;;;9.80;6.15;;;16.80;99.90;;;;;;5032490;28;20500;-70
2021/08/31 05:02:05;;;;;;;8.93;6.32;;;16.80;99.90;;;;;;5043585;28;20090;-70
2021/08/31 05:04:32;;;;;;;9.93;6.43;;;16.80;99.90;;;;;;5033028;28;20469;-69
2021/08/31 05:06:57;;;;;;;10.82;6.00;;;16.80;99.90;;;;;;5035635;28;20132;-70
2021/08/31 05:09:23;;;;;;;11.70;6.57;;;16.80;99.90;;;;;;5032216;28;20581;-70
2021/08/31 05:11:49;;;;;;;11.05;6.45;;;16.80;99.90;;;;;;5030611;28;20022;-69
2021/08/31 05:14:14;;;;;;;10.35;7.85;;;16.80;99.90;;;;;;5032282;28;20033;-69
2021/08/31 05:16:40;;;;;;;9.98;6.10;;;16.80;99.90;;;;;;5037110;28;20032;-69
2021/08/31 05:19:05;;;;;;;10.07;5.72;;;16.80;99.90;;;;;;5053023;28;20431;-70
2021/08/31 05:21:31;;;;;;;9.90;6.70;;;16.80;99.90;;;;;;5040431;28;20026;-69
2021/08/31 05:23:57;;;;;;;11.23;6.82;;;16.80;99.90;;;;;;5032581;28;20025;-69
2021/08/31 05:26:23;;;;;;;8.68;6.18;;;16.90;99.90;;;;;;5029594;28;20052;-69
2021/08/31 05:28:48;;;;;;;10.40;6.20;;;16.80;99.90;;;;;;5032374;28;20025;-70
2021/08/31 05:31:14;;;;;;;11.25;6.88;;;16.80;99.90;;;;;;5029946;28;20128;-70
2021/08/31 05:33:39;;;;;;;11.07;6.57;;;16.80;99.90;;;;;;5032379;28;20065;-69
2021/08/31 05:36:05;;;;;;;8.93;6.30;;;16.80;99.90;;;;;;5030434;28;20025;-70
2021/08/31 05:38:31;;;;;;;12.75;6.43;;;16.80;99.90;;;;;;5031537;28;20044;-70
2021/08/31 05:40:56;;;;;;;9.68;6.80;;;16.80;99.90;;;;;;5031177;28;20025;-70
2021/08/31 05:43:22;;;;;;;8.93;6.80;;;16.80;99.90;;;;;;5032391;28;20212;-70
2021/08/31 05:45:47;;;;;;;10.18;7.30;;;16.70;99.90;;;;;;5030146;28;20029;-70
2021/08/31 05:48:13;;;;;;;10.00;7.03;;;16.70;99.90;;;;;;5032423;28;20108;-70
2021/08/31 05:50:38;;;;;;;11.60;7.28;;;16.60;99.90;;;;;;5030649;28;20123;-70
2021/08/31 05:53:04;;;;;;;10.20;6.65;;;16.70;99.90;;;;;;5046799;28;20045;-70
2021/08/31 05:55:29;;;;;;;10.57;6.82;;;16.70;99.90;;;;;;5019522;28;20091;-70
2021/08/31 05:57:55;;;;;;;8.80;6.22;;;16.70;99.90;;;;;;5050619;28;20056;-69
2021/08/31 06:00:20;;;;;;;9.88;6.47;;;16.70;99.90;;;;;;5027544;28;20017;-69
2021/08/31 06:02:46;;;;;;;11.13;6.85;;;16.70;99.90;;;;;;5031493;28;20376;-77
2021/08/31 06:05:12;;;;;;;9.60;7.00;;;16.80;99.90;;;;;;5013263;28;20018;-70
2021/08/31 06:07:41;;;;;;;8.30;6.45;;;16.80;99.90;;;;;;5034748;28;20389;-69
2021/08/31 06:10:08;;;;;;;10.60;7.00;;;16.80;99.90;;;;;;5038548;28;20052;-70
2021/08/31 06:12:34;;;;;;;12.95;6.82;;;16.80;99.90;;;;;;5029871;28;20029;-72
2021/08/31 06:14:59;;;;;;;7.78;6.13;;;16.80;99.90;;;;;;5035768;28;20025;-72
2021/08/31 06:17:25;;;;;;;10.57;6.45;;;16.90;99.90;;;;;;5036834;28;20037;-72
2021/08/31 06:19:51;;;;;;;10.40;6.75;;;16.90;99.90;;;;;;5035432;28;20098;-72
2021/08/31 06:22:18;;;;;;;11.13;6.97;;;16.90;99.90;;;;;;5037308;28;20112;-73
2021/08/31 06:24:45;;;;;;;11.60;6.75;;;16.80;99.90;;;;;;5035232;28;20032;-72
2021/08/31 06:27:11;;;;;;;10.57;6.75;;;16.90;99.90;;;;;;5041875;28;20025;-72
2021/08/31 06:29:36;;;;;;;9.90;7.13;;;16.80;99.90;;;;;;5033747;28;20030;-71
2021/08/31 06:32:02;;;;;;;9.80;6.50;;;16.80;99.90;;;;;;5041164;28;20036;-71
2021/08/31 06:34:27;;;;;;;12.10;6.68;;;16.80;99.90;;;;;;5038933;28;20441;-70
2021/08/31 06:36:53;;;;;;;10.43;6.63;;;16.90;99.90;;;;;;5032871;28;20112;-70
2021/08/31 06:39:19;;;;;;;10.70;6.95;;;16.90;99.90;;;;;;5037813;28;20792;-70
2021/08/31 06:41:44;;;;;;;9.98;6.72;;;16.80;99.90;;;;;;5034575;28;20064;-70
2021/08/31 06:44:10;;;;;;;10.48;7.10;;;16.80;99.90;;;;;;5035270;28;20059;-70
2021/08/31 06:46:35;;;;;;;9.30;6.70;;;16.80;99.90;;;;;;5030671;28;20021;-70
2021/08/31 06:49:01;;;;;;;9.60;7.00;;;16.80;99.90;;;;;;5039275;28;20064;-70
2021/08/31 06:51:26;;;;;;;10.02;6.47;;;16.80;99.90;;;;;;5038780;28;20075;-69
2021/08/31 06:53:52;;;;;;;11.95;7.07;;;16.80;99.90;;;;;;5032526;28;20132;-69
2021/08/31 06:56:20;;;;;;;10.98;6.80;;;16.80;99.90;;;;;;5024424;28;20029;-71
2021/08/31 06:58:46;;;;;;;10.25;6.60;;;16.80;99.90;;;;;;5041321;28;20036;-67
2021/08/31 07:01:12;;;;;;;10.10;6.45;;;16.80;99.90;;;;;;5031134;28;20031;-67
2021/08/31 07:03:37;;;;;;;9.65;6.85;;;16.80;99.90;;;;;;5034965;28;20022;-68
2021/08/31 07:06:03;;;;;;;11.18;6.30;;;16.90;99.90;;;;;;5037315;28;20117;-67
2021/08/31 07:08:28;;;;;;;9.60;6.53;;;16.90;99.90;;;;;;5031834;28;20385;-67
2021/08/31 07:10:54;;;;;;;10.88;7.07;;;16.90;99.90;;;;;;5033470;28;20416;-67
2021/08/31 07:13:19;;;;;;;7.75;5.72;;;16.90;99.90;;;;;;5039083;28;20028;-67
2021/08/31 07:15:45;;;;;;;11.60;6.28;;;17.00;99.90;;;;;;5042507;28;20033;-68
2021/08/31 07:18:10;;;;;;;10.25;6.07;;;17.10;99.90;;;;;;5037421;28;20036;-68
2021/08/31 07:20:36;;;;;;;8.07;5.78;;;17.20;99.90;;;;;;5040941;28;20116;-68
2021/08/31 07:23:01;;;;;;;8.70;5.85;;;17.20;99.90;;;;;;5050108;28;20389;-68
2021/08/31 07:25:27;;;;;;;10.23;6.07;;;17.30;99.90;;;;;;5035619;28;20033;-68
2021/08/31 07:27:53;;;;;;;11.45;6.28;;;17.20;99.90;;;;;;5034377;28;20478;-68
2021/08/31 07:30:19;;;;;;;9.95;5.32;;;17.30;99.90;;;;;;5045298;28;20283;-67
2021/08/31 07:32:44;;;;;;;10.00;6.47;;;17.30;99.90;;;;;;5031193;28;20040;-67
2021/08/31 07:35:10;;;;;;;9.02;6.25;;;17.50;99.90;;;;;;5045069;28;20022;-68
2021/08/31 07:37:36;;;;;;;8.13;5.90;;;17.50;99.90;;;;;;5034067;28;20549;-68
2021/08/31 07:40:03;;;;;;;9.85;5.68;;;17.60;99.90;;;;;;5034629;28;20037;-68
2021/08/31 07:42:28;;;;;;;8.50;5.22;;;17.70;99.90;;;;;;5047396;28;20036;-68
2021/08/31 07:44:54;;;;;;;9.38;6.35;;;17.70;99.90;;;;;;5040781;28;20029;-68
2021/08/31 07:47:19;;;;;;;8.65;5.70;;;17.80;99.90;;;;;;5032277;28;20072;-68
2021/08/31 07:49:45;;;;;;;8.32;6.25;;;17.80;99.90;;;;;;5051093;28;20021;-69
2021/08/31 07:52:10;;;;;;;10.23;5.40;;;17.90;99.90;;;;;;5033244;28;20071;-67
2021/08/31 07:54:36;;;;;;;8.48;5.65;;;18.00;99.90;;;;;;5036062;28;20679;-68
2021/08/31 07:57:02;;;;;;;11.60;5.63;;;18.10;99.90;;;;;;5037917;28;20032;-68
2021/08/31 07:59:28;;;;;;;9.10;5.65;;;18.20;99.90;;;;;;5040741;28;20120;-68
2021/08/31 08:01:53;;;;;;;7.57;5.80;;;18.30;99.90;;;;;;5035731;28;20537;-68
2021/08/31 08:04:18;;;;;;;10.10;5.47;;;18.40;99.90;;;;;;5042014;28;20561;-70
2021/08/31 08:06:44;;;;;;;9.27;5.72;;;18.40;99.90;;;;;;5034088;28;20030;-70
2021/08/31 08:09:10;;;;;;;8.07;6.13;;;18.50;99.90;;;;;;5038692;28;20029;-70
2021/08/31 08:11:36;;;;;;;8.88;5.07;;;18.60;99.80;;;;;;5036698;28;20025;-70
2021/08/31 08:14:02;;;;;;;8.82;5.63;;;18.60;99.80;;;;;;5050516;28;20389;-70
2021/08/31 08:16:27;;;;;;;11.65;5.22;;;18.70;99.90;;;;;;5038685;28;20040;-68
2021/08/31 08:18:53;;;;;;;9.85;5.47;;;18.90;99.90;;;;;;5035289;28;20075;-69
2021/08/31 08:21:19;;;;;;;9.73;6.40;;;19.00;99.70;;;;;;5030318;28;20071;-71
2021/08/31 08:23:45;;;;;;;7.40;5.53;;;19.10;99.10;;;;;;5042822;28;20381;-71
2021/08/31 08:26:11;;;;;;;7.60;5.13;;;19.00;98.80;;;;;;5029736;28;20025;-71
2021/08/31 08:28:38;;;;;;;8.32;5.22;;;19.00;99.10;;;;;;5032759;28;20033;-72
2021/08/31 08:31:06;;;;;;;8.57;5.00;;;19.10;99.00;;;;;;5039034;28;20051;-71
2021/08/31 08:33:32;;;;;;;7.43;5.40;;;19.10;98.80;;;;;;5025222;28;20022;-72
2021/08/31 08:36:03;;;;;;;9.25;5.40;;;19.10;98.50;;;;;;5018515;28;20087;-72
2021/08/31 08:38:29;;;;;;;8.30;4.55;;;19.10;98.50;;;;;;5037418;28;20708;-71
2021/08/31 08:40:57;;;;;;;6.93;5.50;;;19.10;98.60;;;;;;5051255;28;20025;-72
2021/08/31 08:43:23;;;;;;;10.43;6.07;;;19.20;98.50;;;;;;5053691;28;20112;-73
2021/08/31 08:45:49;;;;;;;7.95;4.78;;;19.20;98.20;;;;;;5047754;28;20104;-70
2021/08/31 08:48:24;;;;;;;7.75;5.00;;;19.20;98.20;;;;;;5033784;28;20044;-71
2021/08/31 08:50:51;;;;;;;7.65;5.55;;;19.20;98.20;;;;;;5041381;28;20064;-72
2021/08/31 08:53:18;;;;;;;9.40;5.90;;;19.20;98.10;;;;;;5058714;28;20512;-72
2021/08/31 08:55:43;;;;;;;7.43;5.82;;;19.30;98.10;;;;;;5045028;28;20037;-70
2021/08/31 08:58:09;;;;;;;8.73;5.10;;;19.40;98.10;;;;;;5034324;28;20434;-73
2021/08/31 09:00:54;;;;;;;7.15;4.88;;;19.40;98.00;;;;;;5035252;28;20322;-74
2021/08/31 09:03:21;;;;;;;7.10;5.38;;;19.50;98.10;;;;;;5054018;28;20151;-73
2021/08/31 09:05:47;;;;;;;6.82;5.35;;;19.50;97.40;;;;;;5050542;28;20045;-74
2021/08/31 09:08:12;;;;;;;10.45;5.03;;;19.40;97.50;;;;;;5035898;28;20075;-73
2021/08/31 09:10:42;;;;;;;6.32;4.68;;;19.50;97.60;;;;;;5035060;28;20026;-73
2021/08/31 09:13:09;;;;;;;8.00;5.40;;;19.60;97.30;;;;;;5053316;28;20028;-73
2021/08/31 09:15:39;;;;;;;9.45;5.22;;;19.60;97.40;;;;;;5048159;28;20367;-74
2021/08/31 09:18:04;;;;;;;6.65;4.75;;;19.70;97.40;;;;;;5032941;28;20116;-73
2021/08/31 09:20:36;;;;;;;8.10;5.97;;;19.80;97.50;;;;;;5032484;28;20573;-74
2021/08/31 09:23:03;;;;;;;8.55;6.40;;;19.80;97.10;;;;;;5052449;28;20021;-74
2021/08/31 09:25:52;;;;;;;8.25;5.68;;;19.90;96.80;;;;;;5017684;28;20030;-74
2021/08/31 09:28:24;;;;;;;8.95;6.05;;;19.80;96.60;;;;;;5032945;28;20095;-73
2021/08/31 09:31:02;;;;;;;8.13;5.50;;;19.90;96.90;;;;;;5044624;28;20037;-75
2021/08/31 09:33:31;;;;;;;8.50;5.57;;;19.90;97.00;;;;;;5052636;28;20025;-74
2021/08/31 09:36:10;;;;;;;8.43;4.90;;;20.00;96.60;;;;;;5044039;28;20099;-76
2021/08/31 09:38:50;;;;;;;7.80;5.28;;;20.00;96.50;;;;;;5033867;28;20045;-75
2021/08/31 09:41:33;;;;;;;7.35;5.45;;;20.10;96.40;;;;;;5038339;28;20469;-75
2021/08/31 09:44:01;;;;;;;8.70;5.57;;;20.20;96.60;;;;;;5032591;28;20041;-75
2021/08/31 09:46:59;;;;;;;7.80;5.57;;;20.20;96.40;;;;;;5033943;28;20061;-77
2021/08/31 09:49:37;;;;;;;7.75;5.78;;;20.20;96.10;;;;;;5032096;28;20037;-74
2021/08/31 09:52:10;;;;;;;6.35;5.18;;;20.20;95.90;;;;;;5029751;28;20060;-74
2021/08/31 09:54:41;;;;;;;7.35;5.03;;;20.20;96.10;;;;;;5036610;28;20178;-73
2021/08/31 09:57:25;;;;;;;7.93;5.28;;;20.30;95.90;;;;;;5032040;28;20038;-76
2021/08/31 09:59:51;;;;;;;7.68;4.75;;;20.40;95.90;;;;;;5046409;28;20037;-75
2021/08/31 10:02:17;;;;;;;8.18;5.72;;;20.50;95.70;;;;;;5049510;28;20086;-75
2021/08/31 10:04:42;;;;;;;6.75;5.20;;;20.50;95.60;;;;;;5048007;28;20086;-74
2021/08/31 10:07:10;;;;;;;8.63;5.53;;;20.50;95.40;;;;;;5020666;28;20117;-75
2021/08/31 10:09:38;;;;;;;8.80;6.15;;;20.60;95.20;;;;;;5012465;28;20026;-77
2021/08/31 10:12:08;;;;;;;7.90;5.70;;;20.60;95.00;;;;;;5026331;28;20045;-77
2021/08/31 10:14:39;;;;;;;8.40;6.13;;;20.60;95.40;;;;;;5031793;28;20104;-77
2021/08/31 10:17:08;;;;;;;7.95;5.85;;;20.80;95.70;;;;;;5031125;28;20065;-77
2021/08/31 10:19:34;;;;;;;7.28;5.63;;;20.90;95.20;;;;;;5031649;28;20083;-77
2021/08/31 10:22:00;;;;;;;6.55;5.03;;;20.90;94.80;;;;;;5030906;28;20053;-75
2021/08/31 10:24:26;;;;;;;8.77;5.85;;;20.90;94.70;;;;;;5030113;28;20030;-75
2021/08/31 10:26:51;;;;;;;10.25;5.95;;;21.00;94.80;;;;;;5026871;28;20026;-74
2021/08/31 10:29:23;;;;;;;7.25;5.53;;;20.90;94.10;;;;;;5031146;28;20083;-75
2021/08/31 10:31:51;;;;;;;7.18;4.72;;;20.90;94.50;;;;;;5024067;28;20149;-74
2021/08/31 10:34:38;;;;;;;6.63;5.25;;;21.00;94.30;;;;;;5034444;28;20017;-75
2021/08/31 10:37:15;;;;;;;8.13;5.35;;;21.10;94.00;;;;;;5033929;28;20030;-75
2021/08/31 10:39:47;;;;;;;8.48;5.47;;;21.10;94.10;;;;;;5030015;28;20064;-75
2021/08/31 10:42:32;;;;;;;9.85;5.60;;;21.20;94.10;;;;;;5027685;28;20021;-75
2021/08/31 10:45:04;;;;;;;6.30;4.80;;;21.30;94.20;;;;;;5011353;28;20030;-75
2021/08/31 10:47:32;;;;;;;7.18;4.90;;;21.30;94.00;;;;;;5028300;28;20039;-74
2021/08/31 10:49:57;;;;;;;5.78;4.82;;;21.30;94.20;;;;;;5029531;28;20029;-75
2021/08/31 10:52:36;;;;;;;8.82;5.18;;;21.40;94.20;;;;;;5030129;28;20074;-75
2021/08/31 10:55:05;;;;;;;8.15;5.00;;;21.40;94.00;;;;;;5031046;28;20045;-77
2021/08/31 10:57:36;;;;;;;7.15;5.25;;;21.30;93.90;;;;;;5019803;28;20033;-75
2021/08/31 11:00:14;;;;;;;6.45;4.65;;;21.30;93.80;;;;;;5031718;28;20515;-75
2021/08/31 11:02:46;;;;;;;6.88;4.90;;;21.30;93.80;;;;;;5034739;28;20112;-75
2021/08/31 11:05:20;;;;;;;7.97;5.57;;;21.30;93.90;;;;;;5034529;28;20104;-75
2021/08/31 11:07:47;;;;;;;7.03;5.45;;;21.20;93.70;;;;;;5026937;28;20030;-77
2021/08/31 11:10:21;;;;;;;7.43;5.47;;;21.10;93.40;;;;;;5032971;28;20029;-75
2021/08/31 11:12:47;;;;;;;7.10;5.07;;;21.00;93.50;;;;;;5044334;28;20095;-76
2021/08/31 11:15:24;;;;;;;10.18;5.43;;;21.00;93.50;;;;;;5037989;28;20107;-76
2021/08/31 11:17:51;;;;;;;7.03;4.90;;;21.10;93.70;;;;;;5044987;28;20537;-76
2021/08/31 11:20:26;;;;;;;7.93;5.15;;;21.10;93.80;;;;;;5034650;28;20065;-77
2021/08/31 11:23:13;;;;;;;6.13;4.72;;;21.20;93.80;;;;;;5044280;28;20036;-77
2021/08/31 11:25:46;;;;;;;6.35;4.68;;;21.30;93.70;;;;;;5024195;28;20041;-76
2021/08/31 11:28:14;;;;;;;7.15;5.03;;;21.30;92.90;;;;;;5037377;28;20485;-76
2021/08/31 11:30:57;;;;;;;8.23;5.68;;;21.40;93.30;;;;;;5024565;28;20057;-76
2021/08/31 11:33:31;;;;;;;7.43;5.20;;;21.40;93.10;;;;;;5058634;28;20484;-76
2021/08/31 11:36:02;;;;;;;7.18;5.20;;;21.50;92.90;;;;;;5038539;28;20048;-76
2021/08/31 11:38:33;;;;;;;8.45;5.75;;;21.40;92.80;;;;;;5035922;28;20064;-76
2021/08/31 11:41:26;;;;;;;6.38;4.75;;;21.40;92.40;;;;;;5038950;28;20101;-76
2021/08/31 11:43:54;;;;;;;5.55;4.60;;;21.50;92.80;;;;;;5027879;28;20036;-76
2021/08/31 11:46:29;;;;;;;6.93;4.72;;;21.50;92.20;;;;;;5031445;28;20108;-75
2021/08/31 11:49:04;;;;;;;;;;;21.50;92.50;;;;;;5030996;28;20064;-75
2021/08/31 11:51:30;;;;;;;7.10;4.68;;;21.50;92.40;;;;;;5031349;28;19913;-75
2021/08/31 11:54:06;;;;;;;7.38;4.70;;;21.40;92.30;;;;;;5024022;28;20110;-75
2021/08/31 11:56:33;;;;;;;6.65;4.88;;;21.40;91.60;;;;;;5031319;28;20071;-75
2021/08/31 11:58:58;;;;;;;6.85;4.97;;;21.40;92.10;;;;;;5032423;28;20037;-75
2021/08/31 12:01:31;;;;;;;8.20;4.30;;;21.40;92.40;;;;;;5032559;28;20029;-74
2021/08/31 12:04:17;;;;;;;7.70;4.88;;;21.50;92.70;;;;;;5033025;28;20039;-75
2021/08/31 12:06:44;;;;;;;7.50;4.68;;;21.60;92.70;;;;;;5031957;28;20034;-75
2021/08/31 12:09:11;;;;;;;8.05;4.90;;;21.60;92.30;;;;;;5034468;28;20025;-74
2021/08/31 12:11:36;;;;;;;6.13;4.20;;;21.70;91.80;;;;;;5031337;28;20102;-75
2021/08/31 12:14:02;;;;;;;7.38;5.00;;;21.70;91.70;;;;;;5032394;28;20029;-75
2021/08/31 12:16:28;;;;;;;7.60;4.93;;;21.60;91.60;;;;;;5033689;28;20056;-75
2021/08/31 12:18:53;;;;;;;7.40;4.97;;;21.60;91.50;;;;;;5032387;28;20033;-77
2021/08/31 12:21:21;;;;;;;9.90;5.07;;;21.50;91.40;;;;;;5031767;28;20056;-75
2021/08/31 12:23:49;;;;;;;6.55;4.40;;;21.50;91.50;;;;;;5028795;28;20688;-77
2021/08/31 12:26:30;;;;;;;6.22;4.50;;;21.50;91.40;;;;;;5029586;28;20581;-75
2021/08/31 12:29:04;;;;;;;7.63;4.45;;;21.50;91.50;;;;;;5038915;28;20025;-76
2021/08/31 12:31:30;;;;;;;6.40;4.72;;;21.40;91.60;;;;;;5035837;28;20025;-76
2021/08/31 12:33:55;;;;;;;7.05;4.53;;;21.40;91.50;;;;;;5037579;28;20099;-75
2021/08/31 12:36:30;;;;;;;6.53;4.00;;;21.40;91.10;;;;;;5040784;28;20021;-76
2021/08/31 12:38:58;;;;;;;5.95;4.18;;;21.30;90.60;;;;;;5041605;28;20556;-76
2021/08/31 12:41:26;;;;;;;7.15;4.20;;;21.20;90.50;;;;;;5038157;28;20028;-75
2021/08/31 12:43:57;;;;;;;5.93;4.28;;;21.10;90.90;;;;;;5035497;28;20083;-75